Time;durP1;ratioP1;P1;durP2;ratioP2;P2;SDS_P1;SDS_P2;PMS_P1;PMS_P2;Temp;Humidity;BMP_temperature;BMP_pressure;BME280_temperature;BME280_humidity;BME280_pressure;Samples;Min_cycle;Max_cycle;Signal;HPM_P1;HPM_P2
2023/01/03 00:02:11;;;;;;;33.70;22.13;;;;;;;-143.57;100.00;51243.34;5060516;28;20048;-63
2023/01/03 00:04:38;;;;;;;30.77;19.42;;;;;;;-143.57;100.00;51209.56;5059072;28;20044;-63
2023/01/03 00:07:11;;;;;;;40.20;22.10;;;;;;;-143.57;100.00;51267.19;5058747;28;20045;-63
2023/01/03 00:09:38;;;;;;;34.35;20.25;;;;;;;-143.57;100.00;51257.25;5060827;28;20051;-63
2023/01/03 00:12:23;;;;;;;36.95;22.23;;;;;;;-143.57;100.00;51304.97;5060981;28;20048;-63
2023/01/03 00:14:57;;;;;;;38.47;20.30;;;;;;;-143.57;100.00;51231.41;5063433;28;20136;-63
2023/01/03 00:17:24;;;;;;;33.95;21.73;;;;;;;-143.57;100.00;51291.06;5067834;28;20060;-63
2023/01/03 00:19:51;;;;;;;33.47;20.77;;;;;;;-143.57;100.00;51275.16;5064998;28;20080;-63
2023/01/03 00:22:18;;;;;;;33.10;18.90;;;;;;;-143.57;100.00;51221.47;5062770;28;20052;-63
2023/01/03 00:24:47;;;;;;;39.08;23.42;;;;;;;-143.57;100.00;51243.34;5059653;28;20053;-63
2023/01/03 00:27:15;;;;;;;36.95;21.60;;;;;;;-143.57;100.00;51273.16;5059346;28;20128;-63
2023/01/03 00:29:42;;;;;;;41.60;22.70;;;;;;;-143.57;100.00;51275.16;5073875;28;20043;-63
2023/01/03 00:32:09;;;;;;;36.03;20.63;;;;;;;-143.57;100.00;51257.25;5063542;28;20041;-63
2023/01/03 00:34:36;;;;;;;35.63;23.50;;;;;;;-143.57;100.00;51287.09;5068913;28;20131;-62
2023/01/03 00:37:03;;;;;;;31.08;18.55;;;;;;;-143.57;100.00;51223.47;5062338;28;20044;-62
2023/01/03 00:39:30;;;;;;;31.10;18.33;;;;;;;-143.57;100.00;51263.22;5065870;28;20067;-63
2023/01/03 00:41:57;;;;;;;32.53;19.10;;;;;;;-143.57;100.00;51263.22;5066211;28;20553;-63
2023/01/03 00:44:23;;;;;;;30.35;18.80;;;;;;;-143.57;100.00;51263.22;5060059;28;20048;-63
2023/01/03 00:46:50;;;;;;;33.55;19.17;;;;;;;-143.57;100.00;51261.25;5065081;28;20056;-63
2023/01/03 00:49:17;;;;;;;31.42;19.33;;;;;;;-143.57;100.00;51306.97;5066369;28;20041;-63
2023/01/03 00:51:44;;;;;;;33.40;21.08;;;;;;;-143.57;100.00;51275.16;5069082;28;20720;-63
2023/01/03 00:54:13;;;;;;;32.70;18.15;;;;;;;-143.57;100.00;51281.13;5065933;28;20044;-62
2023/01/03 00:56:42;;;;;;;33.85;19.73;;;;;;;-143.57;100.00;51267.19;5059730;28;20708;-62
2023/01/03 00:59:10;;;;;;;31.48;19.58;;;;;;;-143.57;100.00;51275.16;5059469;28;20055;-63
2023/01/03 01:01:40;;;;;;;35.05;21.38;;;;;;;-143.57;100.00;51255.28;5063922;28;20437;-62
2023/01/03 01:04:20;;;;;;;33.42;18.58;;;;;;;-143.57;100.00;51235.41;5062786;28;20114;-63
2023/01/03 01:06:55;;;;;;;32.30;19.08;;;;;;;-143.57;100.00;51253.28;5065861;28;20060;-62
2023/01/03 01:09:25;;;;;;;30.70;19.13;;;;;;;-143.57;100.00;51239.38;5061002;28;20045;-63
2023/01/03 01:11:53;;;;;;;28.83;17.30;;;;;;;-143.57;100.00;51259.25;5061790;28;20052;-63
2023/01/03 01:14:22;;;;;;;30.27;18.17;;;;;;;-143.57;100.00;51257.25;5065115;28;20037;-63
2023/01/03 01:16:53;;;;;;;32.22;18.20;;;;;;;-143.57;100.00;51241.34;5067186;28;20531;-63
2023/01/03 01:19:23;;;;;;;31.63;18.48;;;;;;;-143.57;100.00;51263.22;5062205;28;20048;-63
2023/01/03 01:21:51;;;;;;;34.58;19.10;;;;;;;-143.57;100.00;51235.41;5063650;28;20117;-63
2023/01/03 01:24:18;;;;;;;30.95;19.50;;;;;;;-143.57;100.00;51312.94;5059752;28;20140;-63
2023/01/03 01:26:45;;;;;;;27.45;17.67;;;;;;;-143.57;100.00;51279.13;5069806;28;20051;-62
2023/01/03 01:29:13;;;;;;;30.40;17.00;;;;;;;-143.57;100.00;51227.44;5061651;28;20164;-63
2023/01/03 01:31:41;;;;;;;28.77;17.52;;;;;;;-143.57;100.00;51283.09;5070065;28;20040;-63
2023/01/03 01:34:08;;;;;;;32.65;19.88;;;;;;;-143.57;100.00;51263.22;5060938;28;20042;-63
2023/01/03 01:36:40;;;;;;;33.22;18.02;;;;;;;-143.57;100.00;51275.16;5059075;28;20080;-62
2023/01/03 01:39:34;;;;;;;33.70;18.88;;;;;;;-143.57;100.00;51239.38;5061110;28;20087;-63
2023/01/03 01:45:00;;;;;;;28.27;16.70;;;;;;;-143.57;100.00;51255.28;5057080;28;20137;-63
2023/01/03 01:47:26;;;;;;;30.25;18.80;;;;;;;-143.57;100.00;51291.06;5059713;28;20048;-63
2023/01/03 01:50:04;;;;;;;32.15;16.98;;;;;;;-143.57;100.00;51279.13;5062584;28;20474;-63
2023/01/03 01:52:34;;;;;;;30.15;19.00;;;;;;;-143.57;100.00;51275.16;5057235;28;20044;-63
2023/01/03 01:55:03;;;;;;;33.15;18.45;;;;;;;-143.57;100.00;51231.41;5067024;28;20040;-63
2023/01/03 01:57:30;;;;;;;31.30;18.08;;;;;;;-143.57;100.00;51277.16;5054915;28;20044;-63
2023/01/03 01:59:59;;;;;;;34.78;19.80;;;;;;;-143.57;100.00;51289.06;5067767;28;20071;-63
2023/01/03 02:02:26;;;;;;;38.05;21.27;;;;;;;-143.57;100.00;51271.19;5062594;28;20131;-63
2023/01/03 02:04:55;;;;;;;46.42;21.08;;;;;;;-143.57;100.00;51231.41;5063166;28;20905;-63
2023/01/03 02:07:23;;;;;;;56.95;23.20;;;;;;;-143.57;100.00;51259.25;5061615;28;20051;-63
2023/01/03 02:09:55;;;;;;;60.97;23.73;;;;;;;-143.57;100.00;51279.13;5061246;28;20072;-63
2023/01/03 02:15:22;;;;;;;50.83;21.73;;;;;;;-143.57;100.00;51227.44;5065337;28;20044;-63
2023/01/03 02:18:06;;;;;;;44.83;20.30;;;;;;;-143.57;100.00;51275.16;5059776;28;20525;-62
2023/01/03 02:21:01;;;;;;;31.85;18.48;;;;;;;-143.57;100.00;51231.41;5064902;28;20051;-63
2023/01/03 02:23:43;;;;;;;37.83;18.92;;;;;;;-143.57;100.00;51219.50;5058366;28;20037;-63
2023/01/03 02:26:21;;;;;;;65.03;40.75;;;;;;;-143.57;100.00;51235.41;5063921;28;20170;-63
2023/01/03 02:28:48;;;;;;;73.15;47.92;;;;;;;-143.57;100.00;51267.19;5071387;28;20803;-63
2023/01/03 02:31:42;;;;;;;62.53;26.38;;;;;;;-143.57;100.00;51243.34;5061766;28;21030;-63
2023/01/03 02:34:26;;;;;;;56.40;24.85;;;;;;;-143.57;100.00;51235.41;5060082;28;20102;-63
2023/01/03 02:37:06;;;;;;;54.60;23.55;;;;;;;-143.57;100.00;51239.38;5061404;28;20049;-63
2023/01/03 02:39:33;;;;;;;63.17;24.08;;;;;;;-143.57;100.00;51263.22;5055590;28;20048;-63
2023/01/03 02:45:12;;;;;;;52.70;26.35;;;;;;;-143.57;100.00;51271.19;5059571;28;20037;-63
2023/01/03 02:47:49;;;;;;;71.95;26.00;;;;;;;-143.57;100.00;51235.41;5072745;28;20048;-63
2023/01/03 02:50:19;;;;;;;56.35;23.55;;;;;;;-143.57;100.00;51283.09;5060884;28;20052;-63
2023/01/03 02:52:48;;;;;;;70.68;26.98;;;;;;;-143.57;100.00;51239.38;5065396;28;20045;-63
2023/01/03 02:55:28;;;;;;;69.90;25.90;;;;;;;-143.57;100.00;51283.09;5065752;28;20067;-63
2023/01/03 02:58:03;;;;;;;64.45;26.33;;;;;;;-143.57;100.00;51281.13;5069084;28;20052;-63
2023/01/03 03:00:33;;;;;;;50.58;24.05;;;;;;;-143.57;100.00;51227.44;5066840;28;20436;-63
2023/01/03 03:03:08;;;;;;;80.18;26.20;;;;;;;-143.57;100.00;51259.25;5065902;28;20045;-63
2023/01/03 03:06:00;;;;;;;55.63;27.23;;;;;;;-143.57;100.00;51275.16;5065977;28;20057;-63
2023/01/03 03:08:27;;;;;;;60.10;25.88;;;;;;;-143.57;100.00;51239.38;5060788;28;20044;-63
2023/01/03 03:13:47;;;;;;;54.80;24.27;;;;;;;-143.57;100.00;51279.13;5063990;28;20052;-63
2023/01/03 03:25:26;;;;;;;75.20;28.38;;;;;;;-143.57;100.00;51243.34;5061540;28;20036;-63
2023/01/03 03:30:46;;;;;;;72.95;28.30;;;;;;;-143.57;100.00;51263.22;5062078;28;20075;-63
2023/01/03 03:33:15;;;;;;;61.75;27.35;;;;;;;-143.57;100.00;51239.38;5063027;28;20713;-63
2023/01/03 03:35:57;;;;;;;;;;;;;;;-143.57;100.00;51271.19;5068384;28;20028;-63
2023/01/03 03:38:32;;;;;;;59.88;27.65;;;;;;;-143.57;100.00;51235.41;5068961;28;19954;-63
2023/01/03 03:47:33;;;;;;;53.30;27.27;;;;;;;-143.57;100.00;51235.41;5077114;28;20087;-63
2023/01/03 03:50:18;;;;;;;48.90;21.67;;;;;;;-143.57;100.00;51283.09;5061966;28;20046;-63
2023/01/03 03:52:50;;;;;;;55.08;27.75;;;;;;;-143.57;100.00;51283.09;5066761;28;20046;-63
2023/01/03 03:55:30;;;;;;;55.67;24.08;;;;;;;-143.57;100.00;51267.19;5061530;28;20041;-63
2023/01/03 03:58:05;;;;;;;51.50;24.27;;;;;;;-143.57;100.00;51271.19;5066067;28;20059;-63
2023/01/03 04:00:37;;;;;;;57.17;23.55;;;;;;;-143.57;100.00;51263.22;5068762;28;20102;-63
2023/01/03 04:03:06;;;;;;;51.97;22.08;;;;;;;-143.57;100.00;51211.53;5067136;28;20048;-63
2023/01/03 04:05:38;;;;;;;57.47;23.33;;;;;;;-143.57;100.00;51271.19;5060463;28;20464;-63
2023/01/03 04:08:05;;;;;;;53.42;22.92;;;;;;;-143.57;100.00;51283.09;5064444;28;20580;-63
2023/01/03 04:10:32;;;;;;;54.38;23.27;;;;;;;-143.57;100.00;51255.28;5069751;28;20043;-63
2023/01/03 04:13:03;;;;;;;49.42;23.13;;;;;;;-143.57;100.00;51239.38;5067790;28;20717;-63
2023/01/03 04:15:30;;;;;;;44.72;23.13;;;;;;;-143.57;100.00;51259.25;5062007;28;20032;-63
2023/01/03 04:17:57;;;;;;;65.63;23.92;;;;;;;-143.57;100.00;51215.53;5067780;28;20053;-63
2023/01/03 04:20:24;;;;;;;47.75;21.50;;;;;;;-143.57;100.00;51275.16;5060425;28;20051;-63
2023/01/03 04:22:50;;;;;;;58.13;22.08;;;;;;;-143.57;100.00;51231.41;5062236;28;20541;-63
2023/01/03 04:25:17;;;;;;;45.40;23.35;;;;;;;-143.57;100.00;51251.31;5065349;28;20846;-63
2023/01/03 04:27:44;;;;;;;65.90;24.27;;;;;;;-143.57;100.00;51263.22;5070291;28;20052;-63
2023/01/03 04:30:12;;;;;;;48.88;22.77;;;;;;;-143.57;100.00;51235.41;5062469;28;20516;-63
2023/01/03 04:32:39;;;;;;;54.30;25.52;;;;;;;-143.57;100.00;51275.16;5063388;28;20045;-63
2023/01/03 04:35:06;;;;;;;47.20;22.52;;;;;;;-143.57;100.00;51295.03;5068254;28;20048;-63
2023/01/03 04:37:33;;;;;;;49.17;23.75;;;;;;;-143.57;100.00;51259.25;5061536;28;20044;-63
2023/01/03 04:40:00;;;;;;;56.08;24.30;;;;;;;-143.57;100.00;51275.16;5068816;28;20056;-63
2023/01/03 04:45:11;;;;;;;57.40;27.48;;;;;;;-143.57;100.00;51239.38;5062195;28;20048;-63
2023/01/03 04:47:38;;;;;;;64.45;29.20;;;;;;;-143.57;100.00;51239.38;5061837;28;20549;-63
2023/01/03 04:50:05;;;;;;;67.93;31.58;;;;;;;-143.57;100.00;51239.38;5060810;28;20801;-62
2023/01/03 04:52:32;;;;;;;62.42;29.50;;;;;;;-143.57;100.00;51263.22;5059353;28;20117;-63
2023/01/03 04:54:59;;;;;;;48.80;24.30;;;;;;;-143.57;100.00;51223.47;5058959;28;20040;-63
2023/01/03 04:57:26;;;;;;;49.03;25.88;;;;;;;-143.57;100.00;51259.25;5060519;28;20049;-62
2023/01/03 04:59:52;;;;;;;50.88;26.42;;;;;;;-143.57;100.00;51271.19;5073058;28;20469;-62
2023/01/03 05:02:19;;;;;;;50.25;28.48;;;;;;;-143.57;100.00;51275.16;5061540;28;20040;-63
2023/01/03 05:04:46;;;;;;;54.92;24.20;;;;;;;-143.57;100.00;51275.16;5062547;28;20574;-63
2023/01/03 05:07:13;;;;;;;54.42;24.63;;;;;;;-143.57;100.00;51239.38;5066593;28;20052;-63
2023/01/03 05:09:40;;;;;;;54.15;25.92;;;;;;;-143.57;100.00;51239.38;5062914;28;20611;-63
2023/01/03 05:12:06;;;;;;;44.30;25.05;;;;;;;-143.57;100.00;51279.13;5061423;28;20582;-63
2023/01/03 05:14:34;;;;;;;46.80;26.58;;;;;;;-143.57;100.00;51253.28;5060586;28;20781;-63
2023/01/03 05:17:01;;;;;;;49.88;28.35;;;;;;;-143.57;100.00;51227.44;5063360;28;20149;-63
2023/01/03 05:19:28;;;;;;;58.55;29.52;;;;;;;-143.57;100.00;51247.31;5062010;28;20768;-63
2023/01/03 05:27:26;;;;;;;65.80;31.83;;;;;;;-143.57;100.00;51259.25;5063373;28;20033;-64
2023/01/03 05:29:54;;;;;;;64.55;35.67;;;;;;;-143.57;100.00;51247.31;5053619;28;20048;-63
2023/01/03 05:32:22;;;;;;;76.57;42.28;;;;;;;-143.57;100.00;51283.09;5058054;28;20039;-63
2023/01/03 05:34:49;;;;;;;78.00;41.58;;;;;;;-143.57;100.00;51263.22;5058753;28;20118;-63
2023/01/03 05:37:16;;;;;;;78.72;41.13;;;;;;;-143.57;100.00;51259.25;5063208;28;20410;-63
2023/01/03 05:39:43;;;;;;;82.03;40.60;;;;;;;-143.57;100.00;51241.34;5063750;28;20131;-63
2023/01/03 05:42:09;;;;;;;87.80;41.95;;;;;;;-143.57;100.00;51219.50;5063488;28;20124;-63
2023/01/03 05:44:36;;;;;;;90.72;41.85;;;;;;;-143.57;100.00;51259.25;5060369;28;20079;-63
2023/01/03 05:47:04;;;;;;;104.15;46.38;;;;;;;-143.57;100.00;51299.00;5065501;28;20930;-63
2023/01/03 05:49:32;;;;;;;103.40;53.50;;;;;;;-143.57;100.00;51259.25;5064653;28;20037;-64
2023/01/03 05:51:59;;;;;;;80.70;37.53;;;;;;;-143.57;100.00;51275.16;5063031;28;20062;-63
2023/01/03 05:54:25;;;;;;;73.88;36.40;;;;;;;-143.57;100.00;51275.16;5069042;28;20047;-63
2023/01/03 05:56:52;;;;;;;79.63;33.92;;;;;;;-143.57;100.00;51279.13;5065307;28;20032;-63
2023/01/03 05:59:20;;;;;;;58.42;28.83;;;;;;;-143.57;100.00;51215.53;5057772;28;20051;-64
2023/01/03 06:01:47;;;;;;;70.43;31.77;;;;;;;-143.57;100.00;51299.00;5069182;28;20044;-63
2023/01/03 06:04:14;;;;;;;68.97;33.75;;;;;;;-143.57;100.00;51263.22;5064570;28;20593;-64
2023/01/03 06:06:41;;;;;;;90.07;34.15;;;;;;;-143.57;100.00;51243.34;5056500;28;20032;-64
2023/01/03 06:09:08;;;;;;;72.10;33.20;;;;;;;-143.57;100.00;51251.31;5075311;28;20093;-65
2023/01/03 06:11:34;;;;;;;59.60;29.15;;;;;;;-143.57;100.00;51287.09;5062532;28;20792;-65
2023/01/03 06:14:02;;;;;;;63.22;28.98;;;;;;;-143.57;100.00;51271.19;5058612;28;20072;-66
2023/01/03 06:19:14;;;;;;;81.78;41.42;;;;;;;-143.57;100.00;51314.91;5068483;28;20779;-65
2023/01/03 06:21:41;;;;;;;90.28;40.97;;;;;;;-143.57;100.00;51255.28;5076274;28;20062;-66
2023/01/03 06:24:08;;;;;;;61.03;34.00;;;;;;;-143.57;100.00;51239.38;5067967;28;20043;-65
2023/01/03 06:26:35;;;;;;;62.88;33.05;;;;;;;-143.57;100.00;51239.38;5065212;28;20028;-65
2023/01/03 06:29:03;;;;;;;67.50;29.38;;;;;;;-143.57;100.00;51283.09;5060527;28;20068;-65
2023/01/03 06:31:31;;;;;;;79.35;38.20;;;;;;;-143.57;100.00;51271.19;5068142;28;20109;-65
2023/01/03 06:33:57;;;;;;;121.03;57.10;;;;;;;-143.57;100.00;51265.22;5067260;28;20040;-65
2023/01/03 06:36:25;;;;;;;90.90;42.25;;;;;;;-143.57;100.00;51273.16;5058678;28;20055;-65
2023/01/03 06:38:52;;;;;;;81.53;36.72;;;;;;;-143.57;100.00;51303.00;5058847;28;20131;-66
2023/01/03 06:41:19;;;;;;;66.40;33.28;;;;;;;-143.57;100.00;51271.19;5060431;28;20067;-66
2023/01/03 06:43:46;;;;;;;86.43;39.80;;;;;;;-143.57;100.00;51227.44;5057755;28;20037;-65
2023/01/03 06:54:34;;;;;;;96.50;46.53;;;;;;;-143.57;100.00;51213.53;5058549;28;20037;-65
2023/01/03 06:57:02;;;;;;;100.60;46.92;;;;;;;-143.57;100.00;51306.97;5056065;28;20044;-65
2023/01/03 06:59:29;;;;;;;108.45;49.70;;;;;;;-143.57;100.00;51283.09;5058793;28;20044;-65
2023/01/03 07:01:56;;;;;;;115.63;52.63;;;;;;;-143.57;100.00;51287.09;5062878;28;20145;-65
2023/01/03 07:04:26;;;;;;;90.60;51.53;;;;;;;-143.57;100.00;51269.19;5066540;28;20930;-65
2023/01/03 07:06:53;;;;;;;88.07;46.90;;;;;;;-143.57;100.00;51275.16;5060228;28;20086;-65
2023/01/03 07:09:20;;;;;;;114.55;50.90;;;;;;;-143.57;100.00;51279.13;5064149;28;20765;-65
2023/01/03 07:11:47;;;;;;;101.55;47.80;;;;;;;-143.57;100.00;51283.09;5056934;28;20043;-65
2023/01/03 07:14:13;;;;;;;99.60;49.28;;;;;;;-143.57;100.00;51281.13;5061458;28;20041;-65
2023/01/03 07:16:43;;;;;;;91.82;47.03;;;;;;;-143.57;100.00;51259.25;5062296;28;20036;-65
2023/01/03 07:19:12;;;;;;;86.75;38.25;;;;;;;-143.57;100.00;51267.19;5062982;28;20064;-65
2023/01/03 07:21:40;;;;;;;61.28;32.10;;;;;;;-143.57;100.00;51295.03;5055537;28;20047;-65
2023/01/03 07:24:09;;;;;;;96.95;46.20;;;;;;;-143.57;100.00;51287.09;5059788;28;20047;-65
2023/01/03 07:26:37;;;;;;;70.90;34.50;;;;;;;-143.57;100.00;51283.09;5057799;28;20137;-65
2023/01/03 07:29:06;;;;;;;68.50;34.38;;;;;;;-143.57;100.00;51223.47;5059409;28;20049;-65
2023/01/03 07:31:37;;;;;;;60.50;31.08;;;;;;;-143.57;100.00;51195.63;5066341;28;20044;-65
2023/01/03 07:34:04;;;;;;;65.03;31.55;;;;;;;-143.57;100.00;51271.19;5069689;28;20132;-67
2023/01/03 07:36:31;;;;;;;58.33;31.95;;;;;;;-143.57;100.00;51263.22;5070376;28;20870;-64
2023/01/03 07:38:57;;;;;;;54.78;27.90;;;;;;;-143.57;100.00;51275.16;5072700;28;20036;-64
2023/01/03 07:43:35;;;;;;;65.25;31.55;;;;;;;-143.57;100.00;51243.34;5070891;28;20684;-65
2023/01/03 07:44:11;;;;;;;52.35;26.45;;;;;;;-143.57;100.00;51283.09;5062478;28;20044;-64
2023/01/03 07:46:38;;;;;;;80.05;32.55;;;;;;;-143.57;100.00;51271.19;5063828;28;20028;-65
2023/01/03 07:49:05;;;;;;;59.00;30.77;;;;;;;-143.57;100.00;51291.06;5065140;28;20570;-65
2023/01/03 07:51:38;;;;;;;55.83;26.50;;;;;;;-143.57;100.00;51283.09;5068823;28;20056;-64
2023/01/03 07:54:06;;;;;;;185.70;68.95;;;;;;;-143.57;100.00;51235.41;5064210;28;20140;-64
2023/01/03 07:56:33;;;;;;;71.03;32.65;;;;;;;-143.57;100.00;51261.25;5065671;28;20505;-64
2023/01/03 07:59:00;;;;;;;87.50;36.17;;;;;;;-143.57;100.00;51263.22;5059507;28;20040;-65
2023/01/03 08:01:28;;;;;;;81.80;35.20;;;;;;;-143.57;100.00;51211.53;5061996;28;20106;-64
2023/01/03 08:03:56;;;;;;;62.15;29.10;;;;;;;-143.57;100.00;51271.19;5070874;28;20059;-64
2023/01/03 08:06:24;;;;;;;76.35;32.80;;;;;;;-143.57;100.00;51283.09;5067391;28;20464;-64
2023/01/03 08:14:23;;;;;;;99.32;42.15;;;;;;;-143.57;100.00;51287.09;5070046;28;20072;-64
2023/01/03 08:16:53;;;;;;;74.57;31.27;;;;;;;-143.57;100.00;51285.09;5061425;28;20037;-65
2023/01/03 08:19:19;;;;;;;61.80;30.20;;;;;;;-143.57;100.00;51271.19;5066790;28;20495;-64
2023/01/03 08:21:46;;;;;;;59.63;30.52;;;;;;;-143.57;100.00;51273.16;5068239;28;20123;-65
2023/01/03 08:24:13;;;;;;;54.05;30.08;;;;;;;-143.57;100.00;51267.19;5067668;28;20044;-64
2023/01/03 08:26:40;;;;;;;60.53;30.33;;;;;;;-143.57;100.00;51291.06;5060133;28;20553;-64
2023/01/03 08:29:07;;;;;;;62.05;33.53;;;;;;;-143.57;100.00;51271.19;5060184;28;20071;-65
2023/01/03 08:31:39;;;;;;;70.13;36.55;;;;;;;-143.57;100.00;51291.06;5064822;28;20037;-65
2023/01/03 08:34:09;;;;;;;90.15;39.60;;;;;;;-143.57;100.00;51275.16;5066298;28;20574;-64
2023/01/03 08:36:54;;;;;;;101.95;45.50;;;;;;;-143.57;100.00;51259.25;5066379;28;20085;-65
2023/01/03 08:39:25;;;;;;;84.53;35.03;;;;;;;-143.57;100.00;51295.03;5061048;28;20044;-65
2023/01/03 08:42:04;;;;;;;65.97;35.75;;;;;;;-143.57;100.00;51247.31;5054744;28;20793;-65
2023/01/03 08:44:31;;;;;;;73.45;40.22;;;;;;;-143.57;100.00;51275.16;5061748;28;20040;-63
2023/01/03 08:47:01;;;;;;;91.15;47.72;;;;;;;-143.57;100.00;51259.25;5061524;28;20036;-64
2023/01/03 08:49:29;;;;;;;72.70;38.95;;;;;;;-143.57;100.00;51263.22;5058871;28;20043;-64
2023/01/03 08:51:55;;;;;;;67.88;36.35;;;;;;;-143.57;100.00;51291.06;5061903;28;20493;-64
2023/01/03 08:54:22;;;;;;;74.53;39.08;;;;;;;-143.57;100.00;51223.47;5065777;27;20040;-64
2023/01/03 08:56:49;;;;;;;85.10;37.70;;;;;;;-143.57;100.00;51223.47;5067423;28;20043;-64
2023/01/03 08:59:16;;;;;;;83.53;41.55;;;;;;;-143.57;100.00;51303.00;5058202;28;20048;-64
2023/01/03 09:01:43;;;;;;;73.97;37.75;;;;;;;-143.57;100.00;51261.25;5063154;28;20128;-64
2023/01/03 09:04:10;;;;;;;73.97;41.72;;;;;;;-143.57;100.00;51291.06;5060299;28;20800;-64
2023/01/03 09:06:37;;;;;;;63.40;37.65;;;;;;;-143.57;100.00;51275.16;5061971;28;20140;-64
2023/01/03 09:09:05;;;;;;;70.30;37.88;;;;;;;-143.57;100.00;51259.25;5061756;28;20040;-64
2023/01/03 09:11:33;;;;;;;74.03;40.83;;;;;;;-143.57;100.00;51265.22;5059989;28;20729;-63
2023/01/03 09:14:00;;;;;;;64.68;35.25;;;;;;;-143.57;100.00;51295.03;5066007;28;20048;-63
2023/01/03 09:16:27;;;;;;;54.25;32.97;;;;;;;-143.57;100.00;51255.28;5061587;28;20098;-64
2023/01/03 09:18:54;;;;;;;62.08;35.72;;;;;;;-143.57;100.00;51265.22;5064649;28;20533;-64
2023/01/03 09:21:21;;;;;;;65.70;37.83;;;;;;;-143.57;100.00;51283.09;5060660;28;20084;-64
2023/01/03 09:23:47;;;;;;;72.45;41.00;;;;;;;-143.57;100.00;51295.03;5061177;28;20075;-65
2023/01/03 09:26:14;;;;;;;60.33;38.45;;;;;;;-143.57;100.00;51291.06;5061337;28;20040;-64
2023/01/03 09:28:41;;;;;;;57.50;37.30;;;;;;;-143.57;100.00;51275.16;5067635;28;20148;-62
2023/01/03 09:31:08;;;;;;;60.78;36.53;;;;;;;-143.57;100.00;51275.16;5061698;28;20041;-63
2023/01/03 09:33:35;;;;;;;63.35;38.03;;;;;;;-143.57;100.00;51310.94;5067699;28;20040;-63
2023/01/03 09:36:01;;;;;;;61.92;36.60;;;;;;;-143.57;100.00;51299.00;5059055;28;20071;-63
2023/01/03 09:38:28;;;;;;;59.00;35.58;;;;;;;-143.57;100.00;51267.19;5068147;28;20579;-63
2023/01/03 09:41:05;;;;;;;56.70;34.85;;;;;;;-143.57;100.00;51299.00;5062862;28;20052;-63
2023/01/03 09:43:39;;;;;;;57.47;35.53;;;;;;;-143.57;100.00;51279.13;5067663;28;20044;-63
2023/01/03 09:46:23;;;;;;;77.25;44.13;;;;;;;-143.57;100.00;51271.19;5058183;28;20433;-63
2023/01/03 09:48:52;;;;;;;53.67;34.78;;;;;;;-143.57;100.00;51245.34;5064250;28;20064;-63
2023/01/03 10:03:44;;;;;;;57.38;33.75;;;;;;;-143.57;100.00;51247.31;5067521;28;20172;-63
2023/01/03 10:06:29;;;;;;;56.80;33.40;;;;;;;-143.57;100.00;51279.13;5064646;28;20052;-63
2023/01/03 10:09:18;;;;;;;61.17;34.67;;;;;;;-143.57;100.00;51247.31;5062606;28;20050;-62
2023/01/03 10:12:06;;;;;;;55.50;33.53;;;;;;;-143.57;100.00;51279.13;5059139;28;20137;-62
2023/01/03 10:14:53;;;;;;;60.05;34.90;;;;;;;-143.57;100.00;51281.13;5063410;28;20142;-63
2023/01/03 10:17:25;;;;;;;59.92;36.63;;;;;;;-143.57;100.00;51275.16;5063002;28;20052;-63
2023/01/03 10:20:37;;;;;;;57.72;35.33;;;;;;;-143.57;100.00;51271.19;5060166;28;20054;-64
2023/01/03 10:23:06;;;;;;;54.42;31.13;;;;;;;-143.57;100.00;51310.94;5049934;28;20608;-64
2023/01/03 10:25:38;;;;;;;57.90;34.40;;;;;;;-143.57;100.00;51259.25;5061593;28;20040;-64
2023/01/03 10:28:17;;;;;;;52.25;35.75;;;;;;;-143.57;100.00;51267.19;5064761;28;20076;-64
2023/01/03 10:30:53;;;;;;;60.80;35.83;;;;;;;-143.57;100.00;51243.34;5069647;28;20724;-64
2023/01/03 10:33:39;;;;;;;55.42;35.55;;;;;;;-143.57;100.00;51259.25;5056329;28;20541;-64
2023/01/03 10:36:07;;;;;;;62.92;37.30;;;;;;;-143.57;100.00;51271.19;5060075;28;20047;-64
2023/01/03 10:38:35;;;;;;;;;;;;;;;-143.57;100.00;51223.47;5057530;28;20132;-64
2023/01/03 10:41:38;;;;;;;57.78;34.55;;;;;;;-143.57;100.00;51299.00;5064803;28;19931;-63
2023/01/03 10:44:05;;;;;;;57.28;35.10;;;;;;;-143.57;100.00;51318.88;5058132;28;20145;-63
2023/01/03 10:46:31;;;;;;;53.50;34.88;;;;;;;-143.57;100.00;51271.19;5067089;28;20044;-63
2023/01/03 10:49:16;;;;;;;50.08;33.38;;;;;;;-143.57;100.00;51263.22;5058671;28;20058;-64
2023/01/03 10:51:59;;;;;;;60.17;37.88;;;;;;;-143.57;100.00;51263.22;5063058;28;20123;-63
2023/01/03 10:54:41;;;;;;;57.58;36.22;;;;;;;-143.57;100.00;51263.22;5069554;28;20041;-64
2023/01/03 10:57:42;;;;;;;59.97;38.08;;;;;;;-143.57;100.00;51285.09;5061313;28;20135;-62
2023/01/03 11:00:32;;;;;;;57.38;36.38;;;;;;;-143.57;100.00;51291.06;5058361;28;20048;-63
2023/01/03 11:03:08;;;;;;;54.65;34.70;;;;;;;-143.57;100.00;51275.16;5063664;28;20429;-63
2023/01/03 11:05:37;;;;;;;51.25;31.83;;;;;;;-143.57;100.00;51279.13;5062209;28;20048;-61
2023/01/03 11:08:12;;;;;;;48.28;34.08;;;;;;;-143.57;100.00;51291.06;5072556;28;20044;-63
2023/01/03 11:10:57;;;;;;;47.67;30.80;;;;;;;-143.57;100.00;51231.41;5072976;28;20044;-63
2023/01/03 11:13:32;;;;;;;54.90;34.50;;;;;;;-143.57;100.00;51263.22;5066629;28;20095;-62
2023/01/03 11:16:02;;;;;;;50.10;32.05;;;;;;;-143.57;100.00;51310.94;5062295;28;20685;-63
2023/01/03 11:18:30;;;;;;;56.55;33.38;;;;;;;-143.57;100.00;51297.03;5067489;28;20048;-64
2023/01/03 11:21:11;;;;;;;45.83;31.35;;;;;;;-143.57;100.00;51265.22;5064899;28;20040;-63
2023/01/03 11:23:44;;;;;;;45.72;30.40;;;;;;;-143.57;100.00;51245.34;5060137;28;20045;-63
2023/01/03 11:26:58;;;;;;;48.40;30.50;;;;;;;-143.57;100.00;51287.09;5063106;28;20050;-63
2023/01/03 11:29:43;;;;;;;46.83;29.25;;;;;;;-143.57;100.00;51291.06;5056772;28;20052;-63
2023/01/03 11:32:32;;;;;;;37.70;25.67;;;;;;;-143.57;100.00;51243.34;5062881;28;20126;-63
2023/01/03 11:35:28;;;;;;;48.92;33.00;;;;;;;-143.57;100.00;51283.09;5068453;28;20115;-64
2023/01/03 11:38:26;;;;;;;45.83;28.38;;;;;;;-143.57;100.00;51259.25;5007454;28;20057;-64
2023/01/03 11:40:58;;;;;;;47.95;31.23;;;;;;;-143.57;100.00;51275.16;5062321;28;20049;-63
2023/01/03 11:43:43;;;;;;;45.72;29.88;;;;;;;-143.57;100.00;51223.47;5061615;28;20063;-64
2023/01/03 11:46:28;;;;;;;38.13;25.92;;;;;;;-143.57;100.00;51243.34;5075153;28;20128;-64
2023/01/03 11:49:07;;;;;;;41.53;26.73;;;;;;;-143.57;100.00;51273.16;5066190;28;20048;-64
2023/01/03 11:51:47;;;;;;;38.53;27.92;;;;;;;-143.57;100.00;51267.19;5063209;28;20620;-63
2023/01/03 11:54:28;;;;;;;43.45;27.17;;;;;;;-143.57;100.00;51273.16;5061263;28;20044;-63
2023/01/03 11:57:02;;;;;;;37.00;25.02;;;;;;;-143.57;100.00;51271.19;5067414;28;20720;-63
2023/01/03 11:59:45;;;;;;;35.47;23.70;;;;;;;-143.57;100.00;51219.50;5061234;28;20044;-63
2023/01/03 12:02:50;;;;;;;43.35;28.52;;;;;;;-143.57;100.00;51279.13;5063103;28;20056;-63
2023/01/03 12:05:32;;;;;;;40.15;27.90;;;;;;;-143.57;100.00;51219.50;5060438;28;20049;-63
2023/01/03 12:08:11;;;;;;;36.17;26.00;;;;;;;-143.57;100.00;51235.41;5067611;28;20685;-63
2023/01/03 12:10:38;;;;;;;37.05;23.65;;;;;;;-143.57;100.00;51225.47;5063165;28;20044;-64
2023/01/03 12:13:27;;;;;;;37.38;24.48;;;;;;;-143.57;100.00;51275.16;5065925;28;20048;-63
2023/01/03 12:16:23;;;;;;;37.33;26.48;;;;;;;-143.57;100.00;51265.22;5063961;28;20048;-63
2023/01/03 12:19:05;;;;;;;35.28;24.48;;;;;;;-143.57;100.00;51231.41;5067925;28;20052;-63
2023/01/03 12:21:42;;;;;;;40.40;25.38;;;;;;;-143.57;64.25;51249.31;5065356;28;20058;-64
2023/01/03 12:24:30;;;;;;;35.85;25.15;;;;;;;-143.57;63.18;51259.25;5073076;28;20040;-64